createdAt,value
2017-03-20T12:52:57.248Z,44640
2017-03-20T12:53:01.688Z,45248
2017-03-20T12:53:06.023Z,46304
2017-03-20T12:53:10.241Z,47648
2017-03-20T12:53:14.440Z,55008
2017-03-20T12:53:18.655Z,56992
2017-03-20T12:53:22.661Z,72192
2017-03-20T12:53:27.114Z,58528
2017-03-20T12:53:31.204Z,58624
2017-03-20T12:53:35.401Z,60672
2017-03-20T12:53:39.608Z,66176
2017-03-20T12:53:44.048Z,66400
2017-03-20T12:53:48.370Z,56448
2017-03-20T12:53:52.443Z,50656
2017-03-20T12:53:56.652Z,49856
2017-03-20T12:54:00.866Z,50240
2017-03-20T12:54:05.185Z,52832
2017-03-20T12:54:09.387Z,51520
2017-03-20T12:54:13.757Z,50048
2017-03-20T12:54:18.078Z,49440
2017-03-20T12:54:22.168Z,48992
2017-03-20T12:54:26.365Z,49440
2017-03-20T12:54:30.577Z,51360
2017-03-20T12:54:34.890Z,54560
2017-03-20T12:54:39.322Z,62944
2017-03-20T12:54:43.654Z,66304
2017-03-20T12:54:47.968Z,66848
2017-03-20T12:54:52.062Z,65664
2017-03-20T12:54:56.396Z,62048
2017-03-20T12:55:00.598Z,58304
2017-03-20T12:55:04.907Z,52352
2017-03-20T12:55:09.110Z,61280
2017-03-20T12:55:13.138Z,77856
2017-03-20T12:55:17.577Z,91328
2017-03-20T12:55:21.783Z,87648
2017-03-20T12:55:25.976Z,82592
2017-03-20T12:55:30.416Z,89216
2017-03-20T12:55:34.610Z,88768
2017-03-20T12:55:39.034Z,89088
2017-03-20T12:55:42.873Z,88224
2017-03-20T12:55:47.072Z,87424
2017-03-20T12:55:51.296Z,78912
2017-03-20T12:55:55.491Z,75264
2017-03-20T12:55:59.804Z,49184
2017-03-20T12:56:04.241Z,46656
2017-03-20T12:56:08.556Z,46272
2017-03-20T12:56:12.869Z,46464
2017-03-20T12:56:17.191Z,46624
2017-03-20T12:56:21.279Z,47584
2017-03-20T12:56:25.593Z,45792
2017-03-20T12:56:30.023Z,46336
2017-03-20T12:56:34.343Z,46464
2017-03-20T12:56:38.654Z,46784
2017-03-20T12:56:42.850Z,46048
2017-03-20T12:56:47.041Z,47296
2017-03-20T12:56:51.234Z,49376
2017-03-20T12:56:55.713Z,52384
2017-03-20T12:57:00.035Z,45376
2017-03-20T12:57:04.164Z,45888
2017-03-20T12:57:08.590Z,42528
2017-03-20T12:57:12.909Z,40000
2017-03-20T12:57:16.992Z,38624
2017-03-20T12:57:21.305Z,37696
2017-03-20T12:57:25.508Z,37024
2017-03-20T12:57:29.824Z,36544
2017-03-20T12:57:34.189Z,36096
2017-03-20T12:57:38.396Z,35616
2017-03-20T12:57:42.716Z,35168
2017-03-20T12:57:47.161Z,34720
2017-03-20T12:57:51.354Z,34400
2017-03-20T12:57:55.725Z,34016
2017-03-20T12:58:00.035Z,33792
2017-03-20T12:58:04.252Z,33632
2017-03-20T12:58:08.585Z,33600
2017-03-20T12:58:12.899Z,33728
2017-03-20T12:58:17.101Z,35328
2017-03-20T12:58:21.314Z,34016
2017-03-20T12:58:25.627Z,34016
2017-03-20T12:58:29.702Z,33536
2017-03-20T12:58:33.792Z,32768
2017-03-20T12:58:38.039Z,32224
2017-03-20T12:58:42.353Z,31840
2017-03-20T12:58:46.664Z,31648
2017-03-20T12:58:51.112Z,31584
2017-03-20T12:58:55.556Z,31616
2017-03-20T12:58:59.766Z,31552
2017-03-20T12:59:04.179Z,31520
2017-03-20T12:59:08.387Z,31456
2017-03-20T12:59:12.744Z,31456
2017-03-20T12:59:17.064Z,31712
2017-03-20T12:59:21.159Z,32192
2017-03-20T12:59:25.489Z,32768
2017-03-20T12:59:29.933Z,33568
2017-03-20T12:59:34.375Z,34208
2017-03-20T12:59:38.692Z,34752
2017-03-20T12:59:42.889Z,35552
2017-03-20T12:59:47.321Z,36896
2017-03-20T12:59:51.643Z,42656
2017-03-20T12:59:56.080Z,46688
2017-03-20T13:00:00.406Z,55616
2017-03-20T13:00:04.730Z,41184
2017-03-20T13:00:09.046Z,47040
2017-03-20T13:00:13.476Z,52864
2017-03-20T13:00:17.827Z,53536
2017-03-20T13:00:22.066Z,62240
2017-03-20T13:00:26.385Z,61888
2017-03-20T13:00:30.822Z,49888
2017-03-20T13:00:35.017Z,44416
2017-03-20T13:00:39.335Z,37280
2017-03-20T13:00:43.539Z,34688
2017-03-20T13:00:47.733Z,33856
2017-03-20T13:00:51.811Z,33472
2017-03-20T13:00:56.243Z,33280
2017-03-20T13:01:00.437Z,33184
2017-03-20T13:01:04.874Z,33056
2017-03-20T13:01:09.304Z,32672
2017-03-20T13:01:13.625Z,32224
2017-03-20T13:01:17.937Z,31968
2017-03-20T13:01:22.018Z,31808
2017-03-20T13:01:26.216Z,31648
2017-03-20T13:01:30.532Z,31584
2017-03-20T13:01:34.857Z,31520
2017-03-20T13:01:39.295Z,31392
2017-03-20T13:01:43.608Z,31296
2017-03-20T13:01:48.042Z,31168
2017-03-20T13:01:52.236Z,31072
2017-03-20T13:01:56.549Z,30944
2017-03-20T13:02:00.985Z,30784
2017-03-20T13:02:05.302Z,30656
2017-03-20T13:02:09.625Z,30528
2017-03-20T13:02:13.936Z,30400
2017-03-20T13:02:18.009Z,30272
2017-03-20T13:02:22.478Z,30112
2017-03-20T13:02:26.692Z,30048
2017-03-20T13:02:30.895Z,29888
2017-03-20T13:02:35.215Z,29792
2017-03-20T13:02:39.537Z,29632
2017-03-20T13:02:43.859Z,29504
2017-03-20T13:02:48.300Z,29376
2017-03-20T13:02:52.502Z,29280
2017-03-20T13:02:56.941Z,29248
2017-03-20T13:03:01.390Z,29152
2017-03-20T13:03:05.591Z,29024
2017-03-20T13:03:10.029Z,28928
2017-03-20T13:03:14.468Z,28832
2017-03-20T13:03:18.791Z,28704
2017-03-20T13:03:22.868Z,28640
2017-03-20T13:03:26.829Z,28608
2017-03-20T13:03:31.262Z,28512
2017-03-20T13:03:35.709Z,28512
2017-03-20T13:03:40.143Z,28512
2017-03-20T13:03:44.471Z,28544
2017-03-20T13:03:48.784Z,28576
2017-03-20T13:03:53.105Z,28608
2017-03-20T13:03:57.475Z,28736
2017-03-20T13:04:01.672Z,28832
2017-03-20T13:04:06.114Z,28960
2017-03-20T13:04:10.317Z,29088
2017-03-20T13:04:14.756Z,29280
2017-03-20T13:04:18.957Z,29408
2017-03-20T13:04:23.304Z,29632
2017-03-20T13:04:27.509Z,29856
2017-03-20T13:04:31.719Z,30080
2017-03-20T13:04:35.909Z,30336
2017-03-20T13:04:40.107Z,30624
2017-03-20T13:04:44.540Z,30848
2017-03-20T13:04:48.855Z,31168
2017-03-20T13:04:52.930Z,31456
2017-03-20T13:04:57.131Z,31776
2017-03-20T13:05:01.341Z,32096
2017-03-20T13:05:05.971Z,32576
2017-03-20T13:05:10.400Z,33024
2017-03-20T13:05:14.722Z,33536
2017-03-20T13:05:19.037Z,34176
2017-03-20T13:05:23.235Z,34912
2017-03-20T13:05:27.557Z,35936
2017-03-20T13:05:31.754Z,37600
2017-03-20T13:05:35.834Z,38144
2017-03-20T13:05:39.918Z,40736
2017-03-20T13:05:44.119Z,43680
2017-03-20T13:05:48.557Z,42240
2017-03-20T13:05:52.868Z,46144
2017-03-20T13:05:57.176Z,44000
2017-03-20T13:06:01.605Z,43840
2017-03-20T13:06:06.071Z,43776
2017-03-20T13:06:10.261Z,42816
2017-03-20T13:06:14.688Z,44352
2017-03-20T13:06:18.886Z,50880
2017-03-20T13:06:23.206Z,56448
2017-03-20T13:06:27.637Z,45728
2017-03-20T13:06:31.965Z,47840
2017-03-20T13:06:36.166Z,52320
2017-03-20T13:06:40.529Z,48544
2017-03-20T13:06:44.722Z,49056
2017-03-20T13:06:49.041Z,49216
2017-03-20T13:06:53.360Z,51968
2017-03-20T13:06:57.804Z,58368
2017-03-20T13:07:02.323Z,55072
2017-03-20T13:07:06.657Z,54496
2017-03-20T13:07:11.015Z,56608
2017-03-20T13:07:15.460Z,68032
2017-03-20T13:07:19.660Z,78656
2017-03-20T13:07:23.737Z,76224
2017-03-20T13:07:27.933Z,73408
2017-03-20T13:07:32.378Z,80608
2017-03-20T13:07:36.697Z,79936
2017-03-20T13:07:41.018Z,63776
2017-03-20T13:07:45.465Z,56960
2017-03-20T13:07:49.908Z,51136
2017-03-20T13:07:54.279Z,50240
2017-03-20T13:07:58.602Z,53696
2017-03-20T13:08:02.919Z,56512
2017-03-20T13:08:07.354Z,61472
2017-03-20T13:08:11.609Z,61440
2017-03-20T13:08:16.042Z,74048
2017-03-20T13:08:20.242Z,75424
2017-03-20T13:08:24.333Z,77344
2017-03-20T13:08:28.549Z,75744
2017-03-20T13:08:32.986Z,74560
2017-03-20T13:08:37.424Z,75872
2017-03-20T13:08:41.871Z,77600
2017-03-20T13:08:46.312Z,76544
2017-03-20T13:08:50.625Z,74176
2017-03-20T13:08:54.946Z,73696
2017-03-20T13:08:59.377Z,69856
2017-03-20T13:09:03.948Z,75360
2017-03-20T13:09:08.389Z,74912
2017-03-20T13:09:12.591Z,73952
2017-03-20T13:09:16.915Z,58848
2017-03-20T13:09:21.355Z,63040
2017-03-20T13:09:25.711Z,66208
2017-03-20T13:09:30.159Z,74592
2017-03-20T13:09:34.482Z,68544
2017-03-20T13:09:38.684Z,68864
2017-03-20T13:09:42.995Z,66784
2017-03-20T13:09:47.315Z,61568
2017-03-20T13:09:51.764Z,58656
2017-03-20T13:09:56.203Z,55392
2017-03-20T13:10:00.407Z,47008
2017-03-20T13:10:04.810Z,39168
2017-03-20T13:10:09.118Z,38144
2017-03-20T13:10:13.319Z,38016
2017-03-20T13:10:17.518Z,38304
2017-03-20T13:10:21.592Z,40032
2017-03-20T13:10:25.909Z,45088
2017-03-20T13:10:30.219Z,48544
2017-03-20T13:10:34.529Z,49856
2017-03-20T13:10:38.729Z,49568
2017-03-20T13:10:43.170Z,48288
2017-03-20T13:10:47.389Z,47936
2017-03-20T13:10:51.467Z,50656
2017-03-20T13:10:55.663Z,51808
2017-03-20T13:10:59.873Z,51648
2017-03-20T13:11:04.286Z,51424
2017-03-20T13:11:08.601Z,50336
2017-03-20T13:11:12.912Z,49600
2017-03-20T13:11:17.118Z,49312
2017-03-20T13:11:21.193Z,51104
2017-03-20T13:11:25.387Z,53888
2017-03-20T13:11:29.695Z,54368
2017-03-20T13:11:34.006Z,54592
2017-03-20T13:11:38.331Z,55296
2017-03-20T13:11:42.642Z,55264
2017-03-20T13:11:47.074Z,56032
2017-03-20T13:11:51.030Z,56704
2017-03-20T13:11:55.343Z,57504
2017-03-20T13:11:59.654Z,58080
2017-03-20T13:12:03.858Z,58720
2017-03-20T13:12:08.055Z,60384
2017-03-20T13:12:12.491Z,61856
2017-03-20T13:12:16.700Z,63968
2017-03-20T13:12:20.780Z,65152
2017-03-20T13:12:25.095Z,67168
2017-03-20T13:12:29.417Z,68160
2017-03-20T13:12:33.729Z,70112
2017-03-20T13:12:38.162Z,71200
2017-03-20T13:12:42.252Z,71616
2017-03-20T13:12:46.583Z,70816
2017-03-20T13:12:50.902Z,68896
2017-03-20T13:12:55.107Z,68256
2017-03-20T13:12:59.364Z,66880
2017-03-20T13:13:03.806Z,63264
2017-03-20T13:13:08.255Z,61952
2017-03-20T13:13:12.691Z,62368
2017-03-20T13:13:17.009Z,61248
2017-03-20T13:13:21.213Z,60960
2017-03-20T13:13:25.555Z,65184
2017-03-20T13:13:29.522Z,65152
2017-03-20T13:13:33.727Z,63616
2017-03-20T13:13:37.807Z,62752
2017-03-20T13:13:41.912Z,62208
2017-03-20T13:13:46.237Z,60064
2017-03-20T13:13:50.677Z,57888
2017-03-20T13:13:54.886Z,55840
2017-03-20T13:13:59.329Z,54304
2017-03-20T13:14:03.840Z,53216
2017-03-20T13:14:08.187Z,52576
2017-03-20T13:14:12.510Z,50080
2017-03-20T13:14:16.836Z,45920
2017-03-20T13:14:21.154Z,43360
2017-03-20T13:14:25.357Z,41600
2017-03-20T13:14:29.336Z,40800
2017-03-20T13:14:33.654Z,40832
2017-03-20T13:14:37.961Z,39872
2017-03-20T13:14:42.290Z,39456
2017-03-20T13:14:46.733Z,39360
2017-03-20T13:14:51.051Z,38880
2017-03-20T13:14:55.258Z,38240
2017-03-20T13:14:59.582Z,38048
2017-03-20T13:15:03.913Z,38016
2017-03-20T13:15:08.257Z,38432
2017-03-20T13:15:12.688Z,38752
2017-03-20T13:15:17.117Z,31328
2017-03-20T13:15:21.077Z,30496
2017-03-20T13:15:25.047Z,29632
2017-03-20T13:15:29.279Z,29152
2017-03-20T13:15:33.586Z,28896
2017-03-20T13:15:37.663Z,28672
2017-03-20T13:15:41.988Z,28576
2017-03-20T13:15:46.337Z,28608
2017-03-20T13:15:50.649Z,28928
2017-03-20T13:15:54.849Z,30720
2017-03-20T13:15:59.291Z,31648
2017-03-20T13:16:03.533Z,30912
2017-03-20T13:16:07.847Z,28864
2017-03-20T13:16:12.049Z,28064
2017-03-20T13:16:16.388Z,28352
2017-03-20T13:16:20.606Z,27456
2017-03-20T13:16:25.032Z,26976
2017-03-20T13:16:29.222Z,26720
2017-03-20T13:16:33.548Z,26496
2017-03-20T13:16:37.985Z,26336
2017-03-20T13:16:42.297Z,26176
2017-03-20T13:16:46.485Z,25984
2017-03-20T13:16:50.804Z,25824
2017-03-20T13:16:54.890Z,25760
2017-03-20T13:16:59.324Z,25568
2017-03-20T13:17:03.644Z,25440
2017-03-20T13:17:08.082Z,25312
2017-03-20T13:17:12.516Z,25184
2017-03-20T13:17:16.717Z,25120
2017-03-20T13:17:20.954Z,25120
2017-03-20T13:17:25.296Z,25216
2017-03-20T13:17:29.610Z,25440
2017-03-20T13:17:33.920Z,25216
2017-03-20T13:17:38.127Z,25152
2017-03-20T13:17:42.344Z,25312
2017-03-20T13:17:46.441Z,25792
2017-03-20T13:17:50.751Z,26048
2017-03-20T13:17:54.842Z,25728
2017-03-20T13:17:59.282Z,26848
2017-03-20T13:18:03.633Z,27808
2017-03-20T13:18:07.850Z,27968
2017-03-20T13:18:11.818Z,27968
2017-03-20T13:18:16.259Z,28256
2017-03-20T13:18:20.374Z,28704
2017-03-20T13:18:24.705Z,29024
2017-03-20T13:18:29.146Z,29280
2017-03-20T13:18:33.394Z,29696
2017-03-20T13:18:37.722Z,30208
2017-03-20T13:18:42.158Z,30848
2017-03-20T13:18:46.488Z,30912
2017-03-20T13:18:50.855Z,30624
2017-03-20T13:18:55.074Z,29696
2017-03-20T13:18:59.525Z,29024
2017-03-20T13:19:04.060Z,28544
2017-03-20T13:19:08.397Z,28544
2017-03-20T13:19:12.726Z,28352
2017-03-20T13:19:17.050Z,27872
2017-03-20T13:19:21.250Z,27840
2017-03-20T13:19:25.572Z,27744
2017-03-20T13:19:29.776Z,27680
2017-03-20T13:19:34.212Z,27328
2017-03-20T13:19:38.196Z,27232
2017-03-20T13:19:42.513Z,27264
2017-03-20T13:19:46.833Z,27072
2017-03-20T13:19:51.071Z,27200
2017-03-20T13:19:55.284Z,27328
2017-03-20T13:19:59.246Z,27040
2017-03-20T13:20:03.577Z,27840
2017-03-20T13:20:07.694Z,28576
2017-03-20T13:20:12.009Z,28832
2017-03-20T13:20:16.436Z,28640
2017-03-20T13:20:20.872Z,28832
2017-03-20T13:20:25.079Z,28480
2017-03-20T13:20:29.393Z,28256
2017-03-20T13:20:33.595Z,28288
2017-03-20T13:20:38.023Z,27968
2017-03-20T13:20:42.219Z,28352
2017-03-20T13:20:46.406Z,28384
2017-03-20T13:20:50.856Z,24672
2017-03-20T13:20:55.054Z,23840
2017-03-20T13:20:59.366Z,23488
2017-03-20T13:21:03.864Z,23264
2017-03-20T13:21:08.183Z,22848
2017-03-20T13:21:12.500Z,22496
2017-03-20T13:21:16.813Z,22240
2017-03-20T13:21:20.772Z,22048
2017-03-20T13:21:24.850Z,21888
2017-03-20T13:21:29.163Z,21696
2017-03-20T13:21:33.244Z,21440
2017-03-20T13:21:37.670Z,21152
2017-03-20T13:21:41.871Z,20992
2017-03-20T13:21:46.326Z,20768
2017-03-20T13:21:50.520Z,20576
2017-03-20T13:21:54.709Z,20416
2017-03-20T13:21:59.028Z,20256
2017-03-20T13:22:03.548Z,20096
2017-03-20T13:22:07.736Z,19968
2017-03-20T13:22:11.932Z,19872
2017-03-20T13:22:16.011Z,19808
2017-03-20T13:22:20.351Z,19712
2017-03-20T13:22:24.326Z,19680
2017-03-20T13:22:28.406Z,19680
2017-03-20T13:22:32.715Z,19712
2017-03-20T13:22:36.922Z,20096
2017-03-20T13:22:41.115Z,21056
2017-03-20T13:22:45.555Z,21280
2017-03-20T13:22:49.995Z,21344
2017-03-20T13:22:54.076Z,21568
2017-03-20T13:22:58.547Z,21792
2017-03-20T13:23:02.973Z,21600
2017-03-20T13:23:07.403Z,21504
2017-03-20T13:23:11.732Z,22080
2017-03-20T13:23:16.048Z,21792
2017-03-20T13:23:20.247Z,22496
2017-03-20T13:23:24.571Z,23360
2017-03-20T13:23:28.786Z,23712
2017-03-20T13:23:32.986Z,24032
2017-03-20T13:23:37.310Z,24608
2017-03-20T13:23:41.756Z,25120
2017-03-20T13:23:46.205Z,25824
2017-03-20T13:23:50.530Z,26080
2017-03-20T13:23:54.857Z,25888
2017-03-20T13:23:59.298Z,25920
2017-03-20T13:24:03.938Z,26624
2017-03-20T13:24:08.153Z,28064
2017-03-20T13:24:12.356Z,29504
2017-03-20T13:24:16.673Z,30496
2017-03-20T13:24:21.001Z,31488
2017-03-20T13:24:25.489Z,31968
2017-03-20T13:24:29.700Z,31456
2017-03-20T13:24:34.136Z,31680
2017-03-20T13:24:38.581Z,32736
2017-03-20T13:24:42.664Z,32512
2017-03-20T13:24:47.092Z,31072
2017-03-20T13:24:51.411Z,32192
2017-03-20T13:24:55.737Z,35136
2017-03-20T13:25:00.111Z,38080
2017-03-20T13:25:04.541Z,39680
2017-03-20T13:25:08.855Z,39072
2017-03-20T13:25:13.061Z,42048
2017-03-20T13:25:17.399Z,42944
2017-03-20T13:25:21.720Z,43072
2017-03-20T13:25:25.801Z,42560
2017-03-20T13:25:30.231Z,42976
2017-03-20T13:25:34.557Z,25312
2017-03-20T13:25:38.760Z,24320
2017-03-20T13:25:43.194Z,25856
2017-03-20T13:25:47.521Z,23680
2017-03-20T13:25:51.600Z,23680
2017-03-20T13:25:55.803Z,23104
2017-03-20T13:25:59.908Z,22912
2017-03-20T13:26:04.122Z,22848
2017-03-20T13:26:08.553Z,23008
2017-03-20T13:26:12.757Z,22752
2017-03-20T13:26:16.958Z,22592
2017-03-20T13:26:21.273Z,22560
2017-03-20T13:26:25.703Z,22720
2017-03-20T13:26:30.021Z,24672
2017-03-20T13:26:34.341Z,24736
2017-03-20T13:26:38.782Z,27936
2017-03-20T13:26:43.215Z,30752
2017-03-20T13:26:47.292Z,36160
2017-03-20T13:26:51.725Z,38496
2017-03-20T13:26:56.045Z,39520
2017-03-20T13:27:00.370Z,39520
2017-03-20T13:27:04.684Z,39936
2017-03-20T13:27:09.016Z,39584
2017-03-20T13:27:13.445Z,40192
2017-03-20T13:27:17.758Z,42112
2017-03-20T13:27:21.828Z,43264
2017-03-20T13:27:26.278Z,44064
2017-03-20T13:27:30.626Z,45088
2017-03-20T13:27:34.936Z,46528
2017-03-20T13:27:39.375Z,47680
2017-03-20T13:27:43.709Z,47296
2017-03-20T13:27:47.919Z,44544
2017-03-20T13:27:52.231Z,43648
2017-03-20T13:27:56.547Z,44480
2017-03-20T13:28:00.755Z,45440
2017-03-20T13:28:04.961Z,42880
2017-03-20T13:28:09.070Z,43328
2017-03-20T13:28:13.506Z,43328
2017-03-20T13:28:17.471Z,43264
2017-03-20T13:28:21.807Z,42240
2017-03-20T13:28:26.133Z,37536
2017-03-20T13:28:30.566Z,42528
2017-03-20T13:28:34.878Z,43552
2017-03-20T13:28:39.314Z,44672
2017-03-20T13:28:43.628Z,47104
2017-03-20T13:28:47.828Z,47104
2017-03-20T13:28:51.908Z,49888
2017-03-20T13:28:55.998Z,51136
2017-03-20T13:29:00.325Z,51968
2017-03-20T13:29:04.764Z,44864
2017-03-20T13:29:09.196Z,41120
2017-03-20T13:29:13.518Z,37824
2017-03-20T13:29:17.880Z,33856
2017-03-20T13:29:21.717Z,32672
2017-03-20T13:29:25.915Z,31712
2017-03-20T13:29:30.001Z,36320
2017-03-20T13:29:34.467Z,41632
2017-03-20T13:29:38.802Z,43520
2017-03-20T13:29:43.237Z,40544
2017-03-20T13:29:47.315Z,43072
2017-03-20T13:29:51.639Z,48576
2017-03-20T13:29:55.841Z,43200
2017-03-20T13:30:00.282Z,44096
2017-03-20T13:30:04.485Z,44768
2017-03-20T13:30:08.687Z,38688
2017-03-20T13:30:13.000Z,34752
2017-03-20T13:30:17.442Z,43456
2017-03-20T13:30:21.758Z,50880
2017-03-20T13:30:26.067Z,53216
2017-03-20T13:30:30.494Z,46880
2017-03-20T13:30:34.806Z,42112
2017-03-20T13:30:39.291Z,33312
2017-03-20T13:30:43.723Z,28352
2017-03-20T13:30:48.028Z,27968
2017-03-20T13:30:52.224Z,28768
2017-03-20T13:30:56.541Z,34752
2017-03-20T13:31:00.862Z,36992
2017-03-20T13:31:05.598Z,42848
2017-03-20T13:31:09.794Z,47360
2017-03-20T13:31:14.108Z,46368
2017-03-20T13:31:18.543Z,45024
2017-03-20T13:31:22.740Z,44128
2017-03-20T13:31:27.055Z,43072
2017-03-20T13:31:31.373Z,42784
2017-03-20T13:31:35.566Z,41600
2017-03-20T13:31:39.753Z,40992
2017-03-20T13:31:44.180Z,34976
2017-03-20T13:31:48.491Z,39104
2017-03-20T13:31:52.687Z,32192
2017-03-20T13:31:57.005Z,33504
2017-03-20T13:32:01.315Z,37024
2017-03-20T13:32:05.548Z,38112
2017-03-20T13:32:09.871Z,40224
2017-03-20T13:32:14.304Z,40224
2017-03-20T13:32:18.753Z,39520
2017-03-20T13:32:23.067Z,38112
2017-03-20T13:32:27.500Z,35968
2017-03-20T13:32:31.696Z,36128
2017-03-20T13:32:36.161Z,39008
2017-03-20T13:32:40.254Z,38656
2017-03-20T13:32:44.462Z,38496
2017-03-20T13:32:48.781Z,34368
2017-03-20T13:32:53.000Z,35744
2017-03-20T13:32:57.366Z,40128
2017-03-20T13:33:01.895Z,41312
2017-03-20T13:33:06.345Z,42400
2017-03-20T13:33:10.667Z,43968
2017-03-20T13:33:15.032Z,27968
2017-03-20T13:33:19.359Z,21440
2017-03-20T13:33:23.558Z,20960
2017-03-20T13:33:27.650Z,21056
2017-03-20T13:33:31.853Z,20512
2017-03-20T13:33:36.175Z,20576
2017-03-20T13:33:40.495Z,20800
2017-03-20T13:33:44.825Z,21824
2017-03-20T13:33:49.272Z,25152
2017-03-20T13:33:53.476Z,33024
2017-03-20T13:33:57.904Z,36416
2017-03-20T13:34:02.492Z,36512
2017-03-20T13:34:06.820Z,38880
2017-03-20T13:34:11.279Z,38848
2017-03-20T13:34:15.597Z,37824
2017-03-20T13:34:20.033Z,37632
2017-03-20T13:34:24.236Z,37984
2017-03-20T13:34:28.677Z,38048
2017-03-20T13:34:33.114Z,35648
2017-03-20T13:34:37.545Z,36864
2017-03-20T13:34:41.862Z,36352
2017-03-20T13:34:46.179Z,37312
2017-03-20T13:34:50.372Z,37024
2017-03-20T13:34:54.570Z,34944
2017-03-20T13:34:58.901Z,33088
2017-03-20T13:35:03.225Z,31808
2017-03-20T13:35:07.530Z,29920
2017-03-20T13:35:11.850Z,32128
2017-03-20T13:35:16.173Z,34016
2017-03-20T13:35:20.013Z,34432
2017-03-20T13:35:24.327Z,34368
2017-03-20T13:35:28.640Z,33856
2017-03-20T13:35:33.072Z,33824
2017-03-20T13:35:37.438Z,31744
2017-03-20T13:35:41.638Z,29920
2017-03-20T13:35:45.829Z,29216
2017-03-20T13:35:50.267Z,30848
2017-03-20T13:35:54.475Z,32672
2017-03-20T13:35:58.790Z,32832
2017-03-20T13:36:03.317Z,31456
2017-03-20T13:36:07.629Z,30144
2017-03-20T13:36:11.826Z,27712
2017-03-20T13:36:16.018Z,25408
2017-03-20T13:36:20.344Z,24928
2017-03-20T13:36:24.663Z,23904
2017-03-20T13:36:28.989Z,24160
2017-03-20T13:36:33.187Z,25376
2017-03-20T13:36:37.522Z,26656
2017-03-20T13:36:41.845Z,27328
2017-03-20T13:36:46.276Z,26528
2017-03-20T13:36:50.596Z,26720
2017-03-20T13:36:54.445Z,27040
2017-03-20T13:36:58.767Z,26144
2017-03-20T13:37:03.024Z,25344
2017-03-20T13:37:07.219Z,25664
2017-03-20T13:37:11.534Z,26048
2017-03-20T13:37:15.851Z,26240
2017-03-20T13:37:20.281Z,27712
2017-03-20T13:37:24.596Z,27840
2017-03-20T13:37:28.923Z,27328
2017-03-20T13:37:33.235Z,26752
2017-03-20T13:37:37.450Z,26304
2017-03-20T13:37:41.768Z,26336
2017-03-20T13:37:46.085Z,27104
2017-03-20T13:37:50.404Z,27104
2017-03-20T13:37:54.598Z,26432
2017-03-20T13:37:58.919Z,26016
2017-03-20T13:38:03.454Z,25472
2017-03-20T13:38:07.906Z,24704
2017-03-20T13:38:12.110Z,23936
2017-03-20T13:38:16.435Z,23648
2017-03-20T13:38:20.637Z,23808
2017-03-20T13:38:24.972Z,24160
2017-03-20T13:38:29.323Z,24928
2017-03-20T13:38:33.520Z,25376
2017-03-20T13:38:37.960Z,25376
2017-03-20T13:38:42.049Z,25088
2017-03-20T13:38:46.250Z,25504
2017-03-20T13:38:50.454Z,26432
2017-03-20T13:38:54.766Z,27296
2017-03-20T13:38:58.969Z,27424
2017-03-20T13:39:03.399Z,27584
2017-03-20T13:39:07.846Z,27872
2017-03-20T13:39:11.929Z,27840
2017-03-20T13:39:16.365Z,28352
2017-03-20T13:39:20.452Z,28512
2017-03-20T13:39:24.890Z,28768
2017-03-20T13:39:29.000Z,28896
2017-03-20T13:39:33.431Z,28704
2017-03-20T13:39:37.742Z,28448
2017-03-20T13:39:41.943Z,28480
2017-03-20T13:39:46.140Z,28224
2017-03-20T13:39:50.465Z,28160
2017-03-20T13:39:54.432Z,28320
2017-03-20T13:39:58.889Z,28576
2017-03-20T13:40:03.225Z,28640
2017-03-20T13:40:07.421Z,28480
2017-03-20T13:40:11.855Z,28480
2017-03-20T13:40:16.301Z,28896
2017-03-20T13:40:20.376Z,29504
2017-03-20T13:40:24.811Z,29472
2017-03-20T13:40:29.011Z,29376
2017-03-20T13:40:33.326Z,29472
2017-03-20T13:40:37.518Z,30144
2017-03-20T13:40:41.714Z,30624
2017-03-20T13:40:46.143Z,30656
2017-03-20T13:40:50.458Z,30720
2017-03-20T13:40:54.544Z,30336
2017-03-20T13:40:58.738Z,30112
2017-03-20T13:41:03.050Z,30368
2017-03-20T13:41:07.493Z,30528
2017-03-20T13:41:11.921Z,31040
2017-03-20T13:41:16.234Z,31264
2017-03-20T13:41:20.316Z,31552
2017-03-20T13:41:24.765Z,32160
2017-03-20T13:41:29.081Z,33152
2017-03-20T13:41:33.398Z,33824
2017-03-20T13:41:37.593Z,33280
2017-03-20T13:41:41.786Z,34624
2017-03-20T13:41:46.091Z,36064
2017-03-20T13:41:50.403Z,36928
2017-03-20T13:41:54.605Z,37312
2017-03-20T13:41:58.920Z,38304
2017-03-20T13:42:03.350Z,38528
2017-03-20T13:42:07.545Z,36960
2017-03-20T13:42:11.863Z,36576
2017-03-20T13:42:16.177Z,37920
2017-03-20T13:42:20.491Z,38848
2017-03-20T13:42:24.925Z,37728
2017-03-20T13:42:29.023Z,36864
2017-03-20T13:42:33.332Z,36864
2017-03-20T13:42:37.776Z,36832
2017-03-20T13:42:41.981Z,36896
2017-03-20T13:42:46.309Z,37568
2017-03-20T13:42:50.512Z,37952
2017-03-20T13:42:54.822Z,37536
2017-03-20T13:42:59.138Z,37504
2017-03-20T13:43:03.452Z,38784
2017-03-20T13:43:07.936Z,38080
2017-03-20T13:43:12.137Z,37120
2017-03-20T13:43:16.579Z,37760
2017-03-20T13:43:20.933Z,39104
2017-03-20T13:43:25.137Z,38240
2017-03-20T13:43:29.577Z,34240
2017-03-20T13:43:33.899Z,29664
2017-03-20T13:43:38.330Z,29600
2017-03-20T13:43:42.533Z,31552
2017-03-20T13:43:46.849Z,31072
2017-03-20T13:43:51.276Z,27968
2017-03-20T13:43:55.718Z,27648
2017-03-20T13:44:00.037Z,26272
2017-03-20T13:44:04.352Z,24704
2017-03-20T13:44:08.792Z,24448
2017-03-20T13:44:13.240Z,24992
2017-03-20T13:44:17.320Z,25056
2017-03-20T13:44:21.513Z,24960
2017-03-20T13:44:25.836Z,24608
2017-03-20T13:44:30.048Z,24032
2017-03-20T13:44:34.518Z,23424
2017-03-20T13:44:38.946Z,23072
2017-03-20T13:44:43.138Z,23168
2017-03-20T13:44:47.225Z,23808
2017-03-20T13:44:51.426Z,24608
2017-03-20T13:44:55.617Z,25312
2017-03-20T13:44:59.945Z,25472
2017-03-20T13:45:04.558Z,25504
2017-03-20T13:45:08.765Z,26048
2017-03-20T13:45:13.078Z,26912
2017-03-20T13:45:17.398Z,27840
2017-03-20T13:45:21.613Z,28032
2017-03-20T13:45:25.814Z,28352
2017-03-20T13:45:30.121Z,28768
2017-03-20T13:45:34.552Z,29120
2017-03-20T13:45:38.512Z,29344
2017-03-20T13:45:42.710Z,29952
2017-03-20T13:45:47.021Z,30592
2017-03-20T13:45:51.213Z,30688
2017-03-20T13:45:55.641Z,30688
2017-03-20T13:45:59.970Z,30816
2017-03-20T13:46:04.278Z,30752
2017-03-20T13:46:08.597Z,30496
2017-03-20T13:46:12.802Z,30176
2017-03-20T13:46:16.995Z,30176
2017-03-20T13:46:21.363Z,30016
2017-03-20T13:46:25.681Z,30112
2017-03-20T13:46:29.774Z,30400
2017-03-20T13:46:33.849Z,30080
2017-03-20T13:46:38.166Z,29728
2017-03-20T13:46:42.361Z,30016
2017-03-20T13:46:46.443Z,29536
2017-03-20T13:46:50.900Z,28672
2017-03-20T13:46:54.981Z,28384
2017-03-20T13:46:59.415Z,28032
2017-03-20T13:47:04.201Z,27840
2017-03-20T13:47:08.635Z,27552
2017-03-20T13:47:12.945Z,27648
2017-03-20T13:47:17.387Z,27552
2017-03-20T13:47:21.587Z,28000
2017-03-20T13:47:26.021Z,28032
2017-03-20T13:47:30.232Z,28480
2017-03-20T13:47:34.311Z,28896
2017-03-20T13:47:38.649Z,29184
2017-03-20T13:47:42.977Z,29536
2017-03-20T13:47:47.050Z,29824
2017-03-20T13:47:51.246Z,30144
2017-03-20T13:47:55.448Z,30528
2017-03-20T13:47:59.761Z,30432
2017-03-20T13:48:04.196Z,30304
2017-03-20T13:48:08.520Z,30432
2017-03-20T13:48:12.995Z,30560